This is the latest recevied weather packets stored in our database for station/object DK4DAX-2. If no packets are shown the sender has not sent any weather packets the latest 10 day(s).
| Time | Temp. | Humidity | Pressure | Rain* | Wind** | Luminosity | Snow |
|---|---|---|---|---|---|---|---|
| 1787839204 | 32.22° C | 34% | 1006.9 hPa | 0 mm | - | - | - |
| 1787838303 | 32.78° C | 33% | 1007 hPa | 0 mm | - | - | - |
| 1787837403 | 33.33° C | 33% | 1007.1 hPa | 0 mm | - | - | - |
| 1787836504 | 32.78° C | 31% | 1007 hPa | 0 mm | - | - | - |
| 1787835603 | 33.33° C | 33% | 1007 hPa | 0 mm | - | - | - |
| 1787834703 | 32.78° C | 30% | 1007.1 hPa | 0 mm | - | - | - |
| 1787833804 | 33.33° C | 33% | 1007.3 hPa | 0 mm | - | - | - |
| 1787832903 | 34.44° C | 31% | 1007.4 hPa | 0 mm | - | - | - |
| 1787832003 | 34.44° C | 31% | 1007.3 hPa | 0 mm | - | - | - |
| 1787831103 | 33.33° C | 33% | 1007.1 hPa | 0 mm | - | - | - |
| 1787830203 | 31.67° C | 36% | 1007.2 hPa | 0 mm | - | - | - |
| 1787829303 | 28.89° C | 43% | 1007.4 hPa | 0 mm | - | - | - |
| 1787828404 | 30° C | 41% | 1007.5 hPa | 0 mm | - | - | - |
| 1787827503 | 28.89° C | 42% | 1007.4 hPa | 0 mm | - | - | - |
| 1787826603 | 30° C | 40% | 1007.7 hPa | 0 mm | - | - | - |
| 1787825704 | 27.78° C | 47% | 1007.7 hPa | 0 mm | - | - | - |
| 1787824803 | 27.22° C | 47% | 1008.1 hPa | 0 mm | - | - | - |
| 1787823903 | 27.22° C | 48% | 1007.9 hPa | 0 mm | - | - | - |
| 1787823004 | 26.67° C | 50% | 1007.9 hPa | 0 mm | - | - | - |
| 1787822103 | 25.56° C | 52% | 1008.3 hPa | 0 mm | - | - | - |
| 1787821203 | 25.56° C | 54% | 1008.5 hPa | 0 mm | - | - | - |
| 1787820303 | 24.44° C | 57% | 1008.2 hPa | 0 mm | - | - | - |
| 1787819403 | 23.33° C | 61% | 1008.7 hPa | 0 mm | - | - | - |
| 1787818503 | 22.78° C | 62% | 1008.9 hPa | 0 mm | - | - | - |
| 1787817604 | 22.22° C | 63% | 1009.1 hPa | 0 mm | - | - | - |
* Rain latest hour (hover to see other rain measurements)
** Current wind speed in m/s (hover to see current wind gust speed)